createdAt,value
2019-01-29T00:01:34.036Z,15.28
2019-01-29T00:04:03.724Z,14.90
2019-01-29T00:06:33.427Z,15.25
2019-01-29T00:09:04.811Z,14.58
2019-01-29T00:11:34.594Z,14.83
2019-01-29T00:14:04.223Z,14.38
2019-01-29T00:16:34.008Z,14.95
2019-01-29T00:19:03.643Z,14.10
2019-01-29T00:21:33.343Z,14.50
2019-01-29T00:24:02.934Z,14.85
2019-01-29T00:26:32.682Z,14.85
2019-01-29T00:29:02.350Z,13.80
2019-01-29T00:31:33.166Z,14.63
2019-01-29T00:34:03.045Z,13.10
2019-01-29T00:36:32.717Z,13.98
2019-01-29T00:39:02.623Z,14.25
2019-01-29T00:41:32.456Z,13.70
2019-01-29T00:44:02.200Z,12.65
2019-01-29T00:46:31.869Z,14.73
2019-01-29T00:49:01.623Z,13.15
2019-01-29T00:51:31.498Z,13.98
2019-01-29T00:54:01.133Z,13.20
2019-01-29T00:56:31.009Z,12.60
2019-01-29T00:59:00.736Z,13.58
2019-01-29T01:01:30.427Z,13.53
2019-01-29T01:04:00.159Z,13.00
2019-01-29T01:06:29.850Z,12.68
2019-01-29T01:08:59.646Z,12.82
2019-01-29T01:11:29.414Z,13.10
2019-01-29T01:13:59.139Z,12.20
2019-01-29T01:16:28.723Z,12.23
2019-01-29T01:18:58.423Z,12.33
2019-01-29T01:21:28.041Z,12.28
2019-01-29T01:23:57.733Z,12.13
2019-01-29T01:26:27.442Z,12.28
2019-01-29T01:28:57.122Z,11.55
2019-01-29T01:31:26.868Z,11.70
2019-01-29T01:33:56.510Z,12.58
2019-01-29T01:36:26.217Z,11.97
2019-01-29T01:38:55.699Z,11.28
2019-01-29T01:41:25.414Z,11.83
2019-01-29T01:43:55.131Z,11.65
2019-01-29T01:46:24.918Z,11.70
2019-01-29T01:48:54.663Z,11.75
2019-01-29T01:51:24.746Z,11.12
2019-01-29T01:53:54.394Z,11.78
2019-01-29T01:56:24.069Z,11.80
2019-01-29T01:58:53.807Z,11.90
2019-01-29T02:01:23.498Z,11.35
2019-01-29T02:03:53.137Z,10.70
2019-01-29T02:06:22.727Z,11.00
2019-01-29T02:08:52.425Z,11.40
2019-01-29T02:11:22.166Z,10.45
2019-01-29T02:13:51.876Z,11.90
2019-01-29T02:16:21.507Z,10.70
2019-01-29T02:18:51.061Z,11.08
2019-01-29T02:21:20.816Z,10.60
2019-01-29T02:23:50.424Z,10.28
2019-01-29T02:26:19.992Z,11.12
2019-01-29T02:28:49.747Z,10.95
2019-01-29T02:31:19.617Z,10.35
2019-01-29T02:33:49.347Z,10.23
2019-01-29T02:36:19.045Z,11.15
2019-01-29T02:38:48.676Z,10.10
2019-01-29T02:41:18.406Z,10.30
2019-01-29T02:43:48.096Z,10.53
2019-01-29T02:46:17.778Z,10.50
2019-01-29T02:48:47.405Z,10.38
2019-01-29T02:51:17.977Z,9.90
2019-01-29T02:53:47.643Z,10.82
2019-01-29T02:56:17.354Z,10.32
2019-01-29T02:58:46.976Z,10.15
2019-01-29T03:01:16.708Z,9.45
2019-01-29T03:03:46.283Z,10.23
2019-01-29T03:06:16.096Z,10.43
2019-01-29T03:08:45.730Z,10.45
2019-01-29T03:11:15.413Z,10.10
2019-01-29T03:13:45.149Z,10.48
2019-01-29T03:16:14.754Z,10.58
2019-01-29T03:18:44.340Z,9.68
2019-01-29T03:21:13.963Z,10.60
2019-01-29T03:23:43.661Z,9.93
2019-01-29T03:26:13.281Z,9.63
2019-01-29T03:28:42.980Z,9.08
2019-01-29T03:31:12.709Z,9.45
2019-01-29T03:33:42.439Z,10.25
2019-01-29T03:36:12.105Z,9.20
2019-01-29T03:38:41.851Z,10.00
2019-01-29T03:41:11.619Z,9.78
2019-01-29T03:43:41.263Z,9.88
2019-01-29T03:46:10.945Z,9.73
2019-01-29T03:48:40.611Z,9.45
2019-01-29T03:51:10.371Z,9.78
2019-01-29T03:53:40.008Z,10.55
2019-01-29T03:56:09.719Z,10.15
2019-01-29T03:58:39.368Z,9.98
2019-01-29T04:01:09.105Z,10.50
2019-01-29T04:03:38.824Z,10.28
2019-01-29T04:06:08.442Z,9.98
2019-01-29T04:08:38.146Z,9.18
2019-01-29T04:11:07.882Z,10.05
2019-01-29T04:13:37.567Z,8.58
2019-01-29T04:16:07.233Z,10.00
2019-01-29T04:18:36.980Z,10.28
2019-01-29T04:21:06.616Z,9.83
2019-01-29T04:23:36.311Z,10.08
2019-01-29T04:26:06.002Z,8.88
2019-01-29T04:28:35.782Z,9.78
2019-01-29T04:31:05.429Z,10.18
2019-01-29T04:33:35.056Z,10.55
2019-01-29T04:36:04.668Z,10.38
2019-01-29T04:38:34.311Z,9.98
2019-01-29T04:41:04.080Z,10.15
2019-01-29T04:43:33.821Z,9.95
2019-01-29T04:46:03.491Z,10.40
2019-01-29T04:48:33.129Z,9.65
2019-01-29T04:51:02.819Z,9.93
2019-01-29T04:53:32.468Z,10.10
2019-01-29T04:56:02.238Z,9.45
2019-01-29T04:58:31.954Z,9.68
2019-01-29T05:01:01.572Z,9.25
2019-01-29T05:03:31.276Z,9.38
2019-01-29T05:06:01.008Z,9.38
2019-01-29T05:08:30.713Z,9.48
2019-01-29T05:11:01.045Z,8.45
2019-01-29T05:13:31.094Z,10.03
2019-01-29T05:16:00.747Z,9.65
2019-01-29T05:18:32.077Z,9.33
2019-01-29T05:21:01.957Z,10.40
2019-01-29T05:23:31.604Z,9.63
2019-01-29T05:26:01.589Z,11.35
2019-01-29T05:28:31.402Z,12.15
2019-01-29T05:31:01.054Z,12.93
2019-01-29T05:33:30.699Z,13.98
2019-01-29T05:36:00.285Z,14.00
2019-01-29T05:38:30.425Z,14.98
2019-01-29T05:41:00.014Z,15.53
2019-01-29T05:43:29.637Z,12.18
2019-01-29T05:45:59.354Z,16.32
2019-01-29T05:48:29.132Z,16.60
2019-01-29T05:50:58.761Z,16.45
2019-01-29T05:53:28.450Z,16.55
2019-01-29T05:55:59.401Z,16.27
2019-01-29T05:58:29.106Z,15.38
2019-01-29T06:00:58.824Z,15.18
2019-01-29T06:03:28.547Z,14.73
2019-01-29T06:05:58.365Z,14.43
2019-01-29T06:08:28.073Z,13.72
2019-01-29T06:10:57.805Z,14.30
2019-01-29T06:13:27.759Z,14.18
2019-01-29T06:15:57.448Z,14.10
2019-01-29T06:18:27.058Z,13.85
2019-01-29T06:20:56.703Z,13.13
2019-01-29T06:23:26.373Z,13.68
2019-01-29T06:25:56.140Z,13.00
2019-01-29T06:28:25.861Z,12.90
2019-01-29T06:30:55.560Z,13.30
2019-01-29T06:33:25.303Z,13.20
2019-01-29T06:35:54.897Z,12.70
2019-01-29T06:38:24.623Z,12.45
2019-01-29T06:40:54.335Z,12.28
2019-01-29T06:43:24.119Z,14.07
2019-01-29T06:45:53.738Z,12.25
2019-01-29T06:48:23.430Z,11.60
2019-01-29T06:50:53.061Z,11.93
2019-01-29T06:53:22.756Z,12.33
2019-01-29T06:55:52.561Z,13.30
2019-01-29T06:58:22.211Z,12.07
2019-01-29T07:00:51.798Z,12.18
2019-01-29T07:03:21.411Z,12.40
2019-01-29T07:05:52.766Z,12.15
2019-01-29T07:08:23.083Z,11.48
2019-01-29T07:10:53.396Z,12.40
2019-01-29T07:13:23.095Z,12.30
2019-01-29T07:16:12.543Z,11.63
2019-01-29T07:18:45.095Z,11.73
2019-01-29T07:21:14.737Z,11.48
2019-01-29T07:23:44.459Z,11.70
2019-01-29T07:26:14.181Z,10.98
2019-01-29T07:28:43.830Z,11.28
2019-01-29T07:31:13.492Z,11.15
2019-01-29T07:33:43.166Z,10.88
2019-01-29T07:36:12.810Z,11.03
2019-01-29T07:38:42.464Z,10.85
2019-01-29T07:41:12.235Z,10.43
2019-01-29T07:43:41.956Z,11.35
2019-01-29T07:46:11.734Z,11.08
2019-01-29T07:48:41.471Z,11.85
2019-01-29T07:51:11.198Z,11.97
2019-01-29T07:53:40.933Z,10.70
2019-01-29T07:56:10.440Z,11.08
2019-01-29T07:58:40.104Z,11.33
2019-01-29T08:01:09.826Z,11.48
2019-01-29T08:03:39.530Z,11.25
2019-01-29T08:06:09.313Z,11.25
2019-01-29T08:08:39.030Z,11.73
2019-01-29T08:11:08.678Z,11.15
2019-01-29T08:13:38.297Z,11.22
2019-01-29T08:16:08.097Z,12.23
2019-01-29T08:18:37.731Z,11.15
2019-01-29T08:21:07.331Z,10.30
2019-01-29T08:23:37.013Z,11.83
2019-01-29T08:26:06.673Z,11.03
2019-01-29T08:28:36.351Z,11.80
2019-01-29T08:31:06.156Z,11.78
2019-01-29T08:33:35.683Z,12.07
2019-01-29T08:36:05.413Z,11.90
2019-01-29T08:38:35.005Z,12.65
2019-01-29T08:41:04.787Z,12.10
2019-01-29T08:43:34.535Z,11.88
2019-01-29T08:46:04.413Z,12.60
2019-01-29T08:48:34.150Z,12.78
2019-01-29T08:51:03.930Z,11.97
2019-01-29T08:53:33.764Z,12.78
2019-01-29T08:56:03.466Z,13.70
2019-01-29T08:58:33.175Z,13.35
2019-01-29T09:01:02.855Z,14.07
2019-01-29T09:03:32.595Z,13.72
2019-01-29T09:06:02.237Z,14.10
2019-01-29T09:08:31.942Z,14.38
2019-01-29T09:11:01.547Z,14.53
2019-01-29T09:13:31.341Z,15.48
2019-01-29T09:16:01.044Z,15.20
2019-01-29T09:18:30.767Z,14.45
2019-01-29T09:21:00.569Z,14.95
2019-01-29T09:23:30.287Z,15.30
2019-01-29T09:25:59.989Z,14.28
2019-01-29T09:28:29.626Z,14.90
2019-01-29T09:30:59.348Z,16.32
2019-01-29T09:33:28.922Z,15.43
2019-01-29T09:35:58.527Z,16.42
2019-01-29T09:38:28.170Z,18.80
2019-01-29T09:40:57.945Z,23.62
2019-01-29T09:43:27.663Z,24.30
2019-01-29T09:45:57.374Z,26.40
2019-01-29T09:48:27.097Z,29.05
2019-01-29T09:50:56.724Z,31.10
2019-01-29T09:53:26.466Z,31.35
2019-01-29T09:55:56.167Z,35.83
2019-01-29T09:58:25.834Z,38.88
2019-01-29T10:00:55.472Z,40.28
2019-01-29T10:03:25.059Z,41.05
2019-01-29T10:05:54.855Z,42.30
2019-01-29T10:08:24.482Z,44.33
2019-01-29T10:10:54.184Z,44.73
2019-01-29T10:13:23.890Z,45.92
2019-01-29T10:15:53.695Z,47.20
2019-01-29T10:18:23.336Z,46.88
2019-01-29T10:20:53.220Z,48.75
2019-01-29T10:23:22.857Z,49.40
2019-01-29T10:25:52.549Z,48.28
2019-01-29T10:28:22.255Z,47.48
2019-01-29T10:30:51.879Z,48.42
2019-01-29T10:33:21.477Z,49.98
2019-01-29T10:35:51.204Z,50.17
2019-01-29T10:38:20.895Z,50.67
2019-01-29T10:40:50.736Z,51.60
2019-01-29T10:43:20.416Z,50.80
2019-01-29T10:45:50.265Z,49.08
2019-01-29T10:48:19.866Z,50.43
2019-01-29T10:50:50.666Z,48.55
2019-01-29T10:53:20.281Z,50.88
2019-01-29T10:55:50.127Z,49.38
2019-01-29T10:58:19.928Z,49.77
2019-01-29T11:00:49.534Z,48.52
2019-01-29T11:03:19.235Z,46.88
2019-01-29T11:05:48.863Z,45.88
2019-01-29T11:08:18.656Z,45.10
2019-01-29T11:10:48.358Z,45.25
2019-01-29T11:13:17.973Z,44.90
2019-01-29T11:15:47.782Z,43.65
2019-01-29T11:18:17.962Z,43.40
2019-01-29T11:20:47.548Z,42.50
2019-01-29T11:23:17.145Z,41.73
2019-01-29T11:25:55.444Z,41.30
2019-01-29T11:28:18.102Z,39.83
2019-01-29T11:30:47.931Z,40.67
2019-01-29T11:33:17.361Z,38.23
2019-01-29T11:35:47.018Z,38.02
2019-01-29T11:38:16.673Z,38.00
2019-01-29T11:40:46.784Z,36.33
2019-01-29T11:43:16.474Z,37.20
2019-01-29T11:45:51.594Z,35.35
2019-01-29T11:48:21.226Z,35.38
2019-01-29T11:50:50.898Z,34.20
2019-01-29T11:53:20.533Z,34.23
2019-01-29T11:55:50.290Z,33.83
2019-01-29T11:58:20.038Z,32.42
2019-01-29T12:00:59.791Z,32.38
2019-01-29T12:03:29.419Z,32.23
2019-01-29T12:05:59.107Z,32.30
2019-01-29T12:08:28.842Z,31.40
2019-01-29T12:10:58.698Z,30.50
2019-01-29T12:13:28.437Z,30.60
2019-01-29T12:15:58.260Z,30.45
2019-01-29T12:18:28.005Z,28.67
2019-01-29T12:20:57.673Z,30.00
2019-01-29T12:23:27.377Z,29.60
2019-01-29T12:25:57.127Z,29.45
2019-01-29T12:28:26.916Z,27.80
2019-01-29T12:30:56.629Z,29.07
2019-01-29T12:33:26.340Z,27.75
2019-01-29T12:35:56.075Z,26.35
2019-01-29T12:38:25.755Z,26.50
2019-01-29T12:40:55.565Z,27.05
2019-01-29T12:43:25.281Z,26.80
2019-01-29T12:45:54.994Z,25.62
2019-01-29T12:48:24.627Z,26.93
2019-01-29T12:50:58.192Z,25.23
2019-01-29T12:53:39.327Z,25.23
2019-01-29T12:56:08.913Z,25.52
2019-01-29T12:58:38.575Z,25.32
2019-01-29T13:01:08.485Z,25.25
2019-01-29T13:03:38.235Z,23.87
2019-01-29T13:06:07.977Z,24.72
2019-01-29T13:08:37.741Z,24.45
2019-01-29T13:11:07.588Z,24.00
2019-01-29T13:13:37.266Z,24.32
2019-01-29T13:16:06.990Z,23.62
2019-01-29T13:18:36.898Z,23.42
2019-01-29T13:21:06.541Z,23.32
2019-01-29T13:23:36.144Z,22.77
2019-01-29T13:26:05.819Z,23.20
2019-01-29T13:28:35.535Z,22.65
2019-01-29T13:31:05.248Z,22.80
2019-01-29T13:33:34.892Z,22.48
2019-01-29T13:36:06.123Z,22.52
2019-01-29T13:38:36.041Z,22.55
2019-01-29T13:41:05.769Z,22.10
2019-01-29T13:43:35.583Z,22.13
2019-01-29T13:46:06.260Z,23.38
2019-01-29T13:48:35.930Z,22.27
2019-01-29T13:51:06.170Z,23.05
2019-01-29T13:53:35.815Z,22.32
2019-01-29T13:56:05.538Z,21.57
2019-01-29T13:58:35.292Z,21.80
2019-01-29T14:01:05.045Z,22.10
2019-01-29T14:03:34.701Z,22.37
2019-01-29T14:06:04.367Z,21.87
2019-01-29T14:08:34.094Z,22.93
2019-01-29T14:11:03.623Z,22.17
2019-01-29T14:13:33.375Z,21.42
2019-01-29T14:16:05.842Z,20.95
2019-01-29T14:18:35.693Z,21.82
2019-01-29T14:21:05.331Z,22.35
2019-01-29T14:23:34.938Z,22.55
2019-01-29T14:26:04.722Z,21.82
2019-01-29T14:28:34.359Z,22.05
2019-01-29T14:31:04.020Z,23.05
2019-01-29T14:33:33.742Z,22.80
2019-01-29T14:36:03.368Z,23.35
2019-01-29T14:39:22.852Z,22.40
2019-01-29T14:41:52.649Z,22.22
2019-01-29T14:44:44.583Z,22.73
2019-01-29T14:47:14.233Z,23.35
2019-01-29T14:49:44.010Z,22.75
2019-01-29T14:52:13.748Z,23.50
2019-01-29T14:54:43.403Z,23.32
2019-01-29T14:57:13.055Z,21.17
2019-01-29T14:59:42.854Z,22.25
2019-01-29T15:02:12.563Z,22.82
2019-01-29T15:04:42.283Z,22.30
2019-01-29T15:07:12.115Z,23.25
2019-01-29T15:09:41.840Z,24.10
2019-01-29T15:12:11.424Z,23.57
2019-01-29T15:14:41.031Z,23.73
2019-01-29T15:17:44.599Z,23.55
2019-01-29T15:20:14.274Z,23.50
2019-01-29T15:22:44.079Z,23.57
2019-01-29T15:25:13.746Z,24.12
2019-01-29T15:27:43.733Z,24.27
2019-01-29T15:30:22.524Z,24.12
2019-01-29T15:32:52.356Z,25.77
2019-01-29T15:35:22.019Z,25.08
2019-01-29T15:37:51.748Z,25.25
2019-01-29T15:40:21.389Z,25.15
2019-01-29T15:42:51.159Z,26.62
2019-01-29T15:45:20.750Z,24.43
2019-01-29T15:47:50.437Z,26.15
2019-01-29T15:50:21.627Z,26.95
2019-01-29T15:52:51.345Z,27.70
2019-01-29T15:55:21.241Z,27.42
2019-01-29T15:57:50.953Z,28.00
2019-01-29T16:00:25.617Z,29.70
2019-01-29T16:02:55.311Z,31.27
2019-01-29T16:05:26.397Z,33.53
2019-01-29T16:07:56.140Z,33.73
2019-01-29T16:10:39.178Z,35.28
2019-01-29T16:13:02.254Z,37.30
2019-01-29T16:15:32.284Z,38.60
2019-01-29T16:18:01.944Z,39.08
2019-01-29T16:20:31.683Z,39.48
2019-01-29T16:23:01.376Z,40.23
2019-01-29T16:25:31.181Z,42.70
2019-01-29T16:28:00.827Z,43.48
2019-01-29T16:30:30.613Z,45.60
2019-01-29T16:33:00.348Z,46.00
2019-01-29T16:35:31.359Z,46.25
2019-01-29T16:38:01.070Z,45.40
2019-01-29T16:40:30.916Z,46.02
2019-01-29T16:43:00.758Z,45.83
2019-01-29T16:45:32.107Z,46.02
2019-01-29T16:48:02.069Z,47.20
2019-01-29T16:50:31.702Z,45.65
2019-01-29T16:53:01.317Z,46.77
2019-01-29T16:55:31.779Z,47.08
2019-01-29T16:58:01.828Z,47.20
2019-01-29T17:00:32.122Z,49.03
2019-01-29T17:03:01.912Z,48.55
2019-01-29T17:05:31.699Z,49.23
2019-01-29T17:08:01.211Z,51.18
2019-01-29T17:10:30.907Z,52.08
2019-01-29T17:13:00.551Z,49.10
2019-01-29T17:15:30.788Z,50.15
2019-01-29T17:18:00.792Z,50.08
2019-01-29T17:20:35.376Z,50.20
2019-01-29T17:23:05.718Z,49.60
2019-01-29T17:25:35.433Z,49.83
2019-01-29T17:28:05.169Z,49.33
2019-01-29T17:30:36.633Z,52.60
2019-01-29T17:33:06.912Z,50.35
2019-01-29T17:35:37.633Z,52.30
2019-01-29T17:38:07.450Z,52.93
2019-01-29T17:40:37.073Z,54.40
2019-01-29T17:43:07.280Z,55.33
2019-01-29T17:45:42.089Z,56.18
2019-01-29T17:48:11.837Z,56.73
2019-01-29T17:50:42.924Z,57.43
2019-01-29T17:53:12.568Z,57.40
2019-01-29T17:55:42.853Z,57.60
2019-01-29T17:58:13.681Z,60.45
2019-01-29T18:00:47.303Z,62.95
2019-01-29T18:03:16.976Z,60.73
2019-01-29T18:05:46.650Z,62.78
2019-01-29T18:08:16.403Z,64.60
2019-01-29T18:10:45.991Z,65.90
2019-01-29T18:13:15.718Z,66.62
2019-01-29T18:15:45.402Z,66.45
2019-01-29T18:18:15.116Z,69.85
2019-01-29T18:20:44.828Z,72.53
2019-01-29T18:23:14.589Z,72.25
2019-01-29T18:25:44.335Z,73.28
2019-01-29T18:28:13.990Z,72.47
2019-01-29T18:30:43.465Z,74.17
2019-01-29T18:33:13.399Z,73.12
2019-01-29T18:35:43.103Z,74.82
2019-01-29T18:38:12.867Z,74.47
2019-01-29T18:40:46.210Z,74.53
2019-01-29T18:43:15.963Z,73.45
2019-01-29T18:45:45.645Z,74.37
2019-01-29T18:48:15.437Z,74.00
2019-01-29T18:50:45.040Z,74.17
2019-01-29T18:53:14.657Z,78.55
2019-01-29T18:55:44.358Z,77.30
2019-01-29T18:58:15.383Z,78.90
2019-01-29T19:00:54.383Z,79.67
2019-01-29T19:03:16.658Z,77.65
2019-01-29T19:05:46.373Z,76.57
2019-01-29T19:08:16.079Z,76.67
2019-01-29T19:10:45.818Z,75.40
2019-01-29T19:13:15.439Z,77.12
2019-01-29T19:15:45.414Z,75.97
2019-01-29T19:18:15.042Z,76.22
2019-01-29T19:20:44.518Z,82.45
2019-01-29T19:23:14.154Z,80.17
2019-01-29T19:25:43.859Z,79.00
2019-01-29T19:28:21.677Z,78.72
2019-01-29T19:30:44.857Z,76.92
2019-01-29T19:33:14.518Z,80.95
2019-01-29T19:35:44.191Z,80.80
2019-01-29T19:38:16.434Z,82.82
2019-01-29T19:40:45.331Z,79.87
2019-01-29T19:43:14.939Z,82.27
2019-01-29T19:45:44.624Z,85.87
2019-01-29T19:48:14.388Z,82.42
2019-01-29T19:50:44.153Z,84.40
2019-01-29T19:53:13.781Z,108.85
2019-01-29T19:55:43.461Z,92.30
2019-01-29T19:58:13.073Z,85.50
2019-01-29T20:00:43.554Z,82.82
2019-01-29T20:03:13.356Z,83.58
2019-01-29T20:05:42.935Z,82.90
2019-01-29T20:08:12.627Z,82.53
2019-01-29T20:10:42.466Z,82.30
2019-01-29T20:13:12.175Z,79.60
2019-01-29T20:15:41.882Z,78.57
2019-01-29T20:18:11.773Z,77.10
2019-01-29T20:20:41.906Z,76.72
2019-01-29T20:23:11.590Z,76.17
2019-01-29T20:25:41.371Z,75.10
2019-01-29T20:28:11.041Z,74.97
2019-01-29T20:30:40.977Z,75.30
2019-01-29T20:33:10.760Z,75.32
2019-01-29T20:35:40.483Z,74.60
2019-01-29T20:38:10.159Z,72.12
2019-01-29T20:40:39.892Z,70.87
2019-01-29T20:43:09.504Z,72.53
2019-01-29T20:45:39.254Z,71.72
2019-01-29T20:48:08.923Z,69.62
2019-01-29T20:50:38.562Z,69.85
2019-01-29T20:53:08.423Z,66.62
2019-01-29T20:55:38.175Z,68.72
2019-01-29T20:58:08.075Z,66.12
2019-01-29T21:00:39.386Z,67.30
2019-01-29T21:03:09.138Z,64.03
2019-01-29T21:05:38.889Z,64.37
2019-01-29T21:08:08.567Z,62.58
2019-01-29T21:10:38.277Z,60.70
2019-01-29T21:13:10.684Z,61.73
2019-01-29T21:15:39.428Z,59.18
2019-01-29T21:18:09.262Z,61.15
2019-01-29T21:20:38.879Z,59.25
2019-01-29T21:23:08.575Z,57.25
2019-01-29T21:25:38.266Z,58.68
2019-01-29T21:28:08.093Z,57.30
2019-01-29T21:30:40.106Z,55.73
2019-01-29T21:33:09.859Z,54.83
2019-01-29T21:35:39.493Z,56.68
2019-01-29T21:38:09.107Z,54.95
2019-01-29T21:40:38.707Z,54.45
2019-01-29T21:43:08.397Z,54.05
2019-01-29T21:45:38.220Z,55.92
2019-01-29T21:48:08.023Z,52.45
2019-01-29T21:50:37.754Z,52.50
2019-01-29T21:53:07.434Z,52.50
2019-01-29T21:55:37.076Z,51.50
2019-01-29T21:58:07.487Z,51.63
2019-01-29T22:00:39.282Z,50.73
2019-01-29T22:03:09.655Z,50.98
2019-01-29T22:05:39.379Z,50.67
2019-01-29T22:08:10.293Z,49.55
2019-01-29T22:10:40.250Z,49.85
2019-01-29T22:13:11.520Z,50.08
2019-01-29T22:15:41.137Z,48.00
2019-01-29T22:18:12.493Z,48.40
2019-01-29T22:20:42.079Z,48.23
2019-01-29T22:23:11.763Z,48.28
2019-01-29T22:25:41.478Z,47.00
2019-01-29T22:28:11.666Z,47.83
2019-01-29T22:30:44.909Z,47.17
2019-01-29T22:33:14.519Z,45.85
2019-01-29T22:35:44.206Z,45.08
2019-01-29T22:38:13.951Z,46.75
2019-01-29T22:40:43.646Z,47.25
2019-01-29T22:43:13.333Z,46.25
2019-01-29T22:45:42.876Z,44.13
2019-01-29T22:48:12.584Z,44.63
2019-01-29T22:50:43.052Z,44.05
2019-01-29T22:53:12.791Z,43.50
2019-01-29T22:55:42.519Z,44.33
2019-01-29T22:58:12.144Z,43.83
2019-01-29T23:01:22.130Z,43.25
2019-01-29T23:04:08.570Z,44.00
2019-01-29T23:07:28.880Z,42.62
2019-01-29T23:09:58.581Z,42.90
2019-01-29T23:12:28.340Z,43.45
2019-01-29T23:14:58.009Z,41.10
2019-01-29T23:17:27.719Z,41.35
2019-01-29T23:19:57.359Z,40.50
2019-01-29T23:22:27.041Z,41.73
2019-01-29T23:24:56.753Z,40.28
2019-01-29T23:27:26.367Z,41.20
2019-01-29T23:29:56.289Z,41.55
2019-01-29T23:32:25.907Z,40.73
2019-01-29T23:34:55.705Z,40.55
2019-01-29T23:37:25.728Z,40.55
2019-01-29T23:39:55.464Z,39.20
2019-01-29T23:42:25.132Z,40.23
2019-01-29T23:44:54.758Z,40.58
2019-01-29T23:47:24.554Z,38.75
2019-01-29T23:49:54.357Z,39.98
2019-01-29T23:52:24.035Z,38.00
2019-01-29T23:54:53.783Z,38.55
2019-01-29T23:57:23.549Z,38.90
2019-01-29T23:59:54.002Z,37.45
